• Join FlightAware (Why Join?)
  • Login
  • US Flag 
01:56AM EDT


 

Airport Tracker/Info


-or-


 

Live Flight TrackerFlight Track Log ✈ AAL270 ✈ 03-May-2013 ✈ PHNL - KLAX

Flight Track Log - Related Links

Times and Time Zones

All times are in EDT time to prevent confusion due to time zone crossing. See the AAL270 flight status page for this flight to view local times or setup timezone preferences in your user account.

Time Position Orientation Groundspeed Altitude Reporting Facility
EDT Latitude Longitude Course Direction KTS MPH feet Rate Location/Type
01:04PM 21.3167 -157.9000 75° East 180 207 1,100  Level Honolulu Center
01:06PM 21.2139 -157.5295 108° East  Level FlightAware Approximate
01:07PM 21.1832 -157.3995 100° East  Level FlightAware Approximate
01:08PM 21.1587 -157.2679 105° East  Level FlightAware Approximate
01:09PM 21.1404 -157.1383 75° East  Level FlightAware Approximate
01:09PM 21.2640 -157.5030 75° East 402 463 11,500  Level FlightAware
01:10PM 21.2810 -157.4130 79° East 409 471 13,300 2,220 Climbing FlightAware
01:11PM 21.3030 -157.3060 78° East 426 490 15,100 1,920 Climbing FlightAware
01:11PM 21.3190 -157.2320 77° East 434 499 16,200 720 Climbing FlightAware
01:12PM 21.3360 -157.1500 77° East 434 499 16,200  Level FlightAware
01:13PM 21.3520 -157.0780 77° East 434 499 16,200  Level FlightAware
01:13PM 21.3670 -157.0070 77° East 434 499 16,200  Level FlightAware
01:14PM 21.3820 -156.9350 77° East 434 499 16,200  Level FlightAware
01:15PM 21.3980 -156.8640 76° East 434 499 16,200 4,200 Level FlightAware
01:16PM 21.4500 -156.6000 76° East 490 564 23,900 4,200 Climbing Honolulu Center
01:17PM 21.4833 -156.4333 78° East 500 575 25,300 1,440 Climbing Honolulu Center
01:18PM 21.5000 -156.3000 82° East 510 587 26,800 1,740 Climbing Honolulu Center
01:19PM 21.5333 -156.1333 78° East 500 575 28,800 1,800 Climbing Honolulu Center
01:20PM 21.5667 -156.0000 75° East 500 575 30,500 1,440 Climbing Honolulu Center
01:21PM 21.5833 -155.8667 82° East 500 575 31,700 1,260 Climbing Honolulu Center
01:22PM 21.6167 -155.7167 77° East 500 575 33,100 1,320 Climbing Honolulu Center
01:23PM 21.6500 -155.5667 77° East 500 575 34,400 1,200 Climbing Honolulu Center
01:24PM 21.6833 -155.4167 77° East 500 575 35,600 1,080 Climbing Honolulu Center
01:25PM 21.7167 -155.2833 75° East 500 575 36,600 900 Climbing Honolulu Center
01:26PM 21.7333 -155.1333 83° East 500 575 37,400 660 Climbing Honolulu Center
01:27PM 21.7667 -154.9833 77° East 490 564 38,000 300 Climbing Honolulu Center
01:28PM 21.8000 -154.8500 75° East 490 564 38,000  Level Honolulu Center
01:29PM 21.8167 -154.7000 83° East 490 564 38,000  Level Honolulu Center
01:30PM 21.8500 -154.5500 77° East 500 575 38,000  Level Honolulu Center
01:31PM 21.8833 -154.4000 77° East 490 564 38,000  Level Honolulu Center
01:32PM 21.9000 -154.2667 82° East 500 575 38,000  Level Honolulu Center
01:33PM 21.9333 -154.1167 77° East 490 564 38,000  Level Honolulu Center
01:34PM 21.9667 -153.9667 76° East 490 564 38,000  Level Honolulu Center
01:35PM 21.9833 -153.8167 83° East 500 575 38,000  Level Honolulu Center
01:36PM 22.0167 -153.6833 75° East 500 575 38,000  Level Honolulu Center
01:37PM 22.0500 -153.5333 76° East 490 564 38,000  Level Honolulu Center
01:38PM 22.0667 -153.3833 83° East 490 564 38,000  Level Honolulu Center
01:39PM 22.1000 -153.2500 75° East 490 564 38,000  Level Honolulu Center
01:41PM 22.1378 -153.0387 79° East  Level FlightAware Approximate
01:48PM 22.2998 -152.1127 79° East  Level FlightAware Approximate
01:49PM 22.3225 -151.9802 79° East  Level FlightAware Approximate
01:50PM 22.3494 -151.8507 62° Northeast  Level FlightAware Approximate
01:50PM 22.3500 -151.8833 62° Northeast 479 551 38,000  Level Oakland Oceanic (ODAPS)
01:51PM 22.4080 -151.7317 62° Northeast  Level FlightAware Approximate
01:52PM 22.4665 -151.6127 62° Northeast  Level FlightAware Approximate
01:53PM 22.5249 -151.4935 62° Northeast  Level FlightAware Approximate
01:54PM 22.5832 -151.3742 62° Northeast  Level FlightAware Approximate
01:55PM 22.6414 -151.2548 62° Northeast  Level FlightAware Approximate
01:56PM 22.7006 -151.1330 62° Northeast  Level FlightAware Approximate
01:57PM 22.9080 -150.7353 62° Northeast 479 551 38,000  Level FlightAware Transoceanic
01:58PM 22.9695 -150.6072 63° Northeast 479 551 38,000  Level FlightAware Transoceanic
01:59PM 23.0309 -150.4789 63° Northeast 479 551 38,000  Level FlightAware Transoceanic
02:00PM 23.0922 -150.3506 63° Northeast 479 551 38,000  Level FlightAware Transoceanic
02:01PM 23.1534 -150.2221 63° Northeast 479 551 38,000  Level FlightAware Transoceanic
02:02PM 23.2144 -150.0935 63° Northeast 479 551 38,000  Level FlightAware Transoceanic
02:03PM 23.2754 -149.9648 63° Northeast 479 551 38,000  Level FlightAware Transoceanic
02:04PM 23.3363 -149.8359 63° Northeast 479 551 38,000  Level FlightAware Transoceanic
02:05PM 23.3970 -149.7070 63° Northeast 479 551 38,000  Level FlightAware Transoceanic
02:06PM 23.4577 -149.5779 63° Northeast 479 551 38,000  Level FlightAware Transoceanic
02:07PM 23.5182 -149.4487 63° Northeast 479 551 38,000  Level FlightAware Transoceanic
02:08PM 23.5787 -149.3194 63° Northeast 479 551 38,000  Level FlightAware Transoceanic
02:09PM 23.6390 -149.1900 63° Northeast 479 551 38,000  Level FlightAware Transoceanic
02:10PM 23.6993 -149.0604 63° Northeast 479 551 38,000  Level FlightAware Transoceanic
02:11PM 23.7594 -148.9307 63° Northeast 479 551 38,000  Level FlightAware Transoceanic
02:12PM 23.8194 -148.8009 63° Northeast 479 551 38,000  Level FlightAware Transoceanic
02:13PM 23.8793 -148.6710 63° Northeast 479 551 38,000  Level FlightAware Transoceanic
02:14PM 23.9391 -148.5410 63° Northeast 479 551 38,000  Level FlightAware Transoceanic
02:15PM 23.9988 -148.4109 63° Northeast 479 551 38,000  Level FlightAware Transoceanic
02:16PM 24.0584 -148.2806 63° Northeast 479 551 38,000  Level FlightAware Transoceanic
02:17PM 24.1178 -148.1502 63° Northeast 479 551 38,000  Level FlightAware Transoceanic
02:18PM 24.1772 -148.0197 64° Northeast 479 551 38,000  Level FlightAware Transoceanic
02:19PM 24.2364 -147.8891 64° Northeast 479 551 38,000  Level FlightAware Transoceanic
02:20PM 24.2956 -147.7583 64° Northeast 479 551 38,000  Level FlightAware Transoceanic
02:21PM 24.3546 -147.6274 64° Northeast 479 551 38,000  Level FlightAware Transoceanic
02:22PM 24.4135 -147.4964 64° Northeast 479 551 38,000  Level FlightAware Transoceanic
02:23PM 24.4723 -147.3653 64° Northeast 479 551 38,000  Level FlightAware Transoceanic
02:24PM 24.5310 -147.2341 64° Northeast 479 551 38,000  Level FlightAware Transoceanic
02:25PM 24.5895 -147.1027 64° Northeast 479 551 38,000  Level FlightAware Transoceanic
02:26PM 24.6480 -146.9712 64° Northeast 479 551 38,000  Level FlightAware Transoceanic
02:27PM 24.7063 -146.8396 64° Northeast 479 551 38,000  Level FlightAware Transoceanic
02:28PM 24.7645 -146.7079 64° Northeast 479 551 38,000  Level FlightAware Transoceanic
02:29PM 24.8227 -146.5760 64° Northeast 479 551 38,000  Level FlightAware Transoceanic
02:30PM 24.8806 -146.4440 64° Northeast 479 551 38,000  Level FlightAware Transoceanic
02:31PM 24.9385 -146.3119 64° Northeast 479 551 38,000  Level FlightAware Transoceanic
02:32PM 24.9963 -146.1797 64° Northeast 479 551 38,000  Level FlightAware Transoceanic
02:33PM 25.0539 -146.0473 64° Northeast 479 551 38,000  Level FlightAware Transoceanic
02:34PM 25.1115 -145.9149 64° Northeast 479 551 38,000  Level FlightAware Transoceanic
02:35PM 25.1689 -145.7823 64° Northeast 479 551 38,000  Level FlightAware Transoceanic
02:36PM 25.2262 -145.6495 65° Northeast 479 551 38,000  Level FlightAware Transoceanic
02:37PM 25.2833 -145.5167 65° Northeast 479 551 38,000  Level FlightAware Transoceanic
02:38PM 25.3390 -145.3863 65° Northeast 479 551 38,000  Level FlightAware Transoceanic
02:39PM 25.3945 -145.2559 65° Northeast 479 551 38,000  Level FlightAware Transoceanic
02:39PM 25.2833 -145.5167 65° Northeast 478 550 38,000  Level Oakland Oceanic (ODAPS)
02:40PM 25.4499 -145.1253 65° Northeast 479 551 38,000  Level FlightAware Transoceanic
02:41PM 25.5052 -144.9946 65° Northeast 479 551 38,000  Level FlightAware Transoceanic
02:42PM 25.5604 -144.8637 65° Northeast 479 551 38,000  Level FlightAware Transoceanic
02:43PM 25.6154 -144.7328 65° Northeast 479 551 38,000  Level FlightAware Transoceanic
02:44PM 25.6703 -144.6017 65° Northeast 479 551 38,000  Level FlightAware Transoceanic
02:45PM 25.7341 -144.4491 65° Northeast 478 550 38,000  Level FlightAware Transoceanic
02:46PM 25.7899 -144.3151 65° Northeast 478 550 38,000  Level FlightAware Transoceanic
02:47PM 25.8456 -144.1810 65° Northeast 478 550 38,000  Level FlightAware Transoceanic
02:48PM 25.9011 -144.0467 65° Northeast 478 550 38,000  Level FlightAware Transoceanic
02:49PM 25.9566 -143.9123 65° Northeast 478 550 38,000  Level FlightAware Transoceanic
02:50PM 26.0119 -143.7778 65° Northeast 478 550 38,000  Level FlightAware Transoceanic
02:51PM 26.0671 -143.6432 66° East 478 550 38,000  Level FlightAware Transoceanic
02:52PM 26.1221 -143.5084 66° East 478 550 38,000  Level FlightAware Transoceanic
02:53PM 26.1771 -143.3735 66° East 478 550 38,000  Level FlightAware Transoceanic
02:54PM 26.2319 -143.2385 66° East 478 550 38,000  Level FlightAware Transoceanic
02:55PM 26.2866 -143.1033 66° East 478 550 38,000  Level FlightAware Transoceanic
02:56PM 26.3411 -142.9680 66° East 478 550 38,000  Level FlightAware Transoceanic
02:57PM 26.3955 -142.8326 66° East 478 550 38,000  Level FlightAware Transoceanic
02:58PM 26.4498 -142.6971 66° East 478 550 38,000  Level FlightAware Transoceanic
02:59PM 26.5040 -142.5614 66° East 478 550 38,000  Level FlightAware Transoceanic
03:00PM 26.5580 -142.4257 66° East 478 550 38,000  Level FlightAware Transoceanic
03:01PM 26.6119 -142.2897 66° East 478 550 38,000  Level FlightAware Transoceanic
03:02PM 26.6657 -142.1537 66° East 478 550 38,000  Level FlightAware Transoceanic
03:03PM 26.7194 -142.0175 66° East 478 550 38,000  Level FlightAware Transoceanic
03:04PM 26.7729 -141.8812 66° East 478 550 38,000  Level FlightAware Transoceanic
03:05PM 26.8263 -141.7448 66° East 478 550 38,000  Level FlightAware Transoceanic
03:06PM 26.8796 -141.6082 66° East 478 550 38,000  Level FlightAware Transoceanic
03:07PM 26.9327 -141.4716 66° East 478 550 38,000  Level FlightAware Transoceanic
03:08PM 26.9857 -141.3347 67° East 478 550 38,000  Level FlightAware Transoceanic
03:09PM 27.0386 -141.1978 67° East 478 550 38,000  Level FlightAware Transoceanic
03:10PM 27.0913 -141.0607 67° East 478 550 38,000  Level FlightAware Transoceanic
03:11PM 27.1439 -140.9235 67° East 478 550 38,000  Level FlightAware Transoceanic
03:12PM 27.1964 -140.7862 67° East 478 550 38,000  Level FlightAware Transoceanic
03:13PM 27.2487 -140.6487 67° East 478 550 38,000  Level FlightAware Transoceanic
03:14PM 27.3009 -140.5112 67° East 478 550 38,000  Level FlightAware Transoceanic
03:15PM 27.3530 -140.3734 67° East 478 550 38,000  Level FlightAware Transoceanic
03:16PM 27.4049 -140.2356 67° East 478 550 38,000  Level FlightAware Transoceanic
03:17PM 27.4567 -140.0976 67° East 478 550 38,000  Level FlightAware Transoceanic
03:18PM 27.5084 -139.9595 67° East 478 550 38,000  Level FlightAware Transoceanic
03:19PM 27.5599 -139.8213 67° East 478 550 38,000  Level FlightAware Transoceanic
03:20PM 27.6113 -139.6829 67° East 478 550 38,000  Level FlightAware Transoceanic
03:21PM 27.6625 -139.5444 67° East 478 550 38,000  Level FlightAware Transoceanic
03:22PM 27.7136 -139.4058 67° East 478 550 38,000  Level FlightAware Transoceanic
03:23PM 27.7646 -139.2670 67° East 478 550 38,000  Level FlightAware Transoceanic
03:24PM 27.8154 -139.1282 68° East 478 550 38,000  Level FlightAware Transoceanic
03:25PM 27.8661 -138.9891 68° East 478 550 38,000  Level FlightAware Transoceanic
03:26PM 27.9167 -138.8500 68° East 478 550 38,000  Level FlightAware Transoceanic
03:27PM 27.9648 -138.7169 68° East 478 550 38,000  Level FlightAware Transoceanic
03:28PM 28.0128 -138.5837 68° East 478 550 38,000  Level FlightAware Transoceanic
03:29PM 28.0607 -138.4504 68° East 478 550 38,000  Level FlightAware Transoceanic
03:30PM 28.1085 -138.3170 68° East 478 550 38,000  Level FlightAware Transoceanic
03:30PM 27.9167 -138.8500 68° East 467 537 38,000  Level Oakland Oceanic (ODAPS)
03:31PM 28.1561 -138.1834 68° East 478 550 38,000  Level FlightAware Transoceanic
03:32PM 28.2036 -138.0497 68° East 478 550 38,000  Level FlightAware Transoceanic
03:33PM 28.2510 -137.9159 68° East 478 550 38,000  Level FlightAware Transoceanic
03:34PM 28.2983 -137.7820 68° East 478 550 38,000  Level FlightAware Transoceanic
03:35PM 28.3454 -137.6480 68° East 478 550 38,000  Level FlightAware Transoceanic
03:36PM 28.3535 -137.6248 68° East 467 537 38,000  Level FlightAware Transoceanic
03:37PM 28.4014 -137.4880 68° East 467 537 38,000  Level FlightAware Transoceanic
03:38PM 28.4491 -137.3512 68° East 467 537 38,000  Level FlightAware Transoceanic
03:39PM 28.4967 -137.2142 68° East 467 537 38,000  Level FlightAware Transoceanic
03:40PM 28.5441 -137.0770 69° East 467 537 38,000  Level FlightAware Transoceanic
03:41PM 28.5915 -136.9398 69° East 467 537 38,000  Level FlightAware Transoceanic
03:42PM 28.6386 -136.8024 69° East 467 537 38,000  Level FlightAware Transoceanic
03:43PM 28.6857 -136.6649 69° East 467 537 38,000  Level FlightAware Transoceanic
03:44PM 28.7326 -136.5273 69° East 467 537 38,000  Level FlightAware Transoceanic
03:45PM 28.7793 -136.3896 69° East 467 537 38,000  Level FlightAware Transoceanic
03:46PM 28.8260 -136.2517 69° East 467 537 38,000  Level FlightAware Transoceanic
03:47PM 28.8724 -136.1137 69° East 467 537 38,000  Level FlightAware Transoceanic
03:48PM 28.9188 -135.9756 69° East 467 537 38,000  Level FlightAware Transoceanic
03:49PM 28.9650 -135.8374 69° East 467 537 38,000  Level FlightAware Transoceanic
03:50PM 29.0110 -135.6990 69° East 467 537 38,000  Level FlightAware Transoceanic
03:51PM 29.0569 -135.5605 69° East 467 537 38,000  Level FlightAware Transoceanic
03:52PM 29.1027 -135.4219 69° East 467 537 38,000  Level FlightAware Transoceanic
03:53PM 29.1483 -135.2832 69° East 467 537 38,000  Level FlightAware Transoceanic
03:54PM 29.1938 -135.1444 69° East 467 537 38,000  Level FlightAware Transoceanic
03:55PM 29.2392 -135.0054 70° East 467 537 38,000  Level FlightAware Transoceanic
03:56PM 29.2844 -134.8663 70° East 467 537 38,000  Level FlightAware Transoceanic
03:57PM 29.3294 -134.7271 70° East 467 537 38,000  Level FlightAware Transoceanic
03:58PM 29.3743 -134.5877 70° East 467 537 38,000  Level FlightAware Transoceanic
03:59PM 29.4191 -134.4483 70° East 467 537 38,000  Level FlightAware Transoceanic
04:00PM 29.4637 -134.3087 70° East 467 537 38,000  Level FlightAware Transoceanic
04:01PM 29.5082 -134.1690 70° East 467 537 38,000  Level FlightAware Transoceanic
04:02PM 29.5525 -134.0291 70° East 467 537 38,000  Level FlightAware Transoceanic
04:03PM 29.5967 -133.8892 70° East 467 537 38,000  Level FlightAware Transoceanic
04:04PM 29.6407 -133.7491 70° East 467 537 38,000  Level FlightAware Transoceanic
04:05PM 29.6846 -133.6089 70° East 467 537 38,000  Level FlightAware Transoceanic
04:06PM 29.7283 -133.4686 70° East 467 537 38,000  Level FlightAware Transoceanic
04:07PM 29.7719 -133.3282 70° East 467 537 38,000  Level FlightAware Transoceanic
04:08PM 29.8154 -133.1876 70° East 467 537 38,000  Level FlightAware Transoceanic
04:09PM 29.8587 -133.0469 71° East 467 537 38,000  Level FlightAware Transoceanic
04:10PM 29.9018 -132.9061 71° East 467 537 38,000  Level FlightAware Transoceanic
04:11PM 29.9448 -132.7652 71° East 467 537 38,000  Level FlightAware Transoceanic
04:12PM 29.9877 -132.6241 71° East 467 537 38,000  Level FlightAware Transoceanic
04:13PM 30.0303 -132.4829 71° East 467 537 38,000  Level FlightAware Transoceanic
04:14PM 30.0729 -132.3416 71° East 467 537 38,000  Level FlightAware Transoceanic
04:15PM 30.1153 -132.2002 71° East 467 537 38,000  Level FlightAware Transoceanic
04:16PM 30.1575 -132.0587 71° East 467 537 38,000  Level FlightAware Transoceanic
04:17PM 30.1996 -131.9170 71° East 467 537 38,000  Level FlightAware Transoceanic
04:18PM 30.2416 -131.7752 71° East 467 537 38,000  Level FlightAware Transoceanic
04:19PM 30.2833 -131.6333 71° East 467 537 38,000  Level FlightAware Transoceanic
04:20PM 30.3252 -131.4915 71° East 467 537 38,000  Level FlightAware Transoceanic
04:21PM 30.3670 -131.3495 71° East 467 537 38,000  Level FlightAware Transoceanic
04:22PM 30.4085 -131.2074 71° East 467 537 38,000  Level FlightAware Transoceanic
04:22PM 30.2833 -131.6333 71° East 458 527 38,000  Level Oakland Oceanic (ODAPS)
04:23PM 30.4500 -131.0652 71° East 467 537 38,000  Level FlightAware Transoceanic
04:24PM 30.4912 -130.9228 71° East 467 537 38,000  Level FlightAware Transoceanic
04:25PM 30.5324 -130.7803 72° East 467 537 38,000  Level FlightAware Transoceanic
04:26PM 30.5733 -130.6378 72° East 467 537 38,000  Level FlightAware Transoceanic
04:27PM 30.6141 -130.4951 72° East 467 537 38,000  Level FlightAware Transoceanic
04:28PM 30.6548 -130.3522 72° East 467 537 38,000  Level FlightAware Transoceanic
04:29PM 30.6479 -130.3765 72° East 458 527 38,000  Level FlightAware Transoceanic
04:30PM 30.6877 -130.2363 72° East 458 527 38,000  Level FlightAware Transoceanic
04:31PM 30.7273 -130.0959 72° East 458 527 38,000  Level FlightAware Transoceanic
04:32PM 30.7667 -129.9555 72° East 458 527 38,000  Level FlightAware Transoceanic
04:33PM 30.8060 -129.8149 72° East 458 527 38,000  Level FlightAware Transoceanic
04:34PM 30.8452 -129.6742 72° East 458 527 38,000  Level FlightAware Transoceanic
04:35PM 30.8842 -129.5334 72° East 458 527 38,000  Level FlightAware Transoceanic
04:36PM 30.9230 -129.3925 72° East 458 527 38,000  Level FlightAware Transoceanic
04:37PM 30.9617 -129.2514 72° East 458 527 38,000  Level FlightAware Transoceanic
04:38PM 31.0003 -129.1103 72° East 458 527 38,000  Level FlightAware Transoceanic
04:39PM 31.0387 -128.9690 72° East 458 527 38,000  Level FlightAware Transoceanic
04:40PM 31.0769 -128.8277 73° East 458 527 38,000  Level FlightAware Transoceanic
04:41PM 31.1150 -128.6862 73° East 458 527 38,000  Level FlightAware Transoceanic
04:42PM 31.1529 -128.5446 73° East 458 527 38,000  Level FlightAware Transoceanic
04:43PM 31.1907 -128.4029 73° East 458 527 38,000  Level FlightAware Transoceanic
04:44PM 31.2283 -128.2610 73° East 458 527 38,000  Level FlightAware Transoceanic
04:45PM 31.2658 -128.1191 73° East 458 527 38,000  Level FlightAware Transoceanic
04:46PM 31.3031 -127.9771 73° East 458 527 38,000  Level FlightAware Transoceanic
04:47PM 31.3402 -127.8349 73° East 458 527 38,000  Level FlightAware Transoceanic
04:48PM 31.3772 -127.6926 73° East 458 527 38,000  Level FlightAware Transoceanic
04:49PM 31.4140 -127.5502 73° East 458 527 38,000  Level FlightAware Transoceanic
04:50PM 31.4507 -127.4077 73° East 458 527 38,000  Level FlightAware Transoceanic
04:51PM 31.4872 -127.2651 73° East 458 527 38,000  Level FlightAware Transoceanic
04:52PM 31.5236 -127.1224 73° East 458 527 38,000  Level FlightAware Transoceanic
04:53PM 31.5598 -126.9796 73° East 458 527 38,000  Level FlightAware Transoceanic
04:54PM 31.5958 -126.8366 74° East 458 527 38,000  Level FlightAware Transoceanic
04:55PM 31.6317 -126.6936 74° East 458 527 38,000  Level FlightAware Transoceanic
04:56PM 31.6674 -126.5504 74° East 458 527 38,000  Level FlightAware Transoceanic
04:57PM 31.7030 -126.4071 74° East 458 527 38,000  Level FlightAware Transoceanic
04:58PM 31.7384 -126.2637 74° East 458 527 38,000  Level FlightAware Transoceanic
04:59PM 31.7736 -126.1202 74° East 458 527 38,000  Level FlightAware Transoceanic
05:00PM 31.8087 -125.9766 74° East 458 527 38,000  Level FlightAware Transoceanic
05:01PM 31.8437 -125.8329 74° East 458 527 38,000  Level FlightAware Transoceanic
05:02PM 31.8784 -125.6891 74° East 458 527 38,000  Level FlightAware Transoceanic
05:03PM 31.9130 -125.5452 74° East 458 527 38,000  Level FlightAware Transoceanic
05:04PM 31.9475 -125.4011 74° East 458 527 38,000  Level FlightAware Transoceanic
05:05PM 31.9817 -125.2570 74° East 458 527 38,000  Level FlightAware Transoceanic
05:06PM 32.0158 -125.1127 74° East 458 527 38,000  Level FlightAware Transoceanic
05:07PM 32.0498 -124.9684 75° East 458 527 38,000  Level FlightAware Transoceanic
05:08PM 32.0836 -124.8239 75° East 458 527 38,000  Level FlightAware Transoceanic
05:09PM 32.1172 -124.6794 75° East 458 527 38,000  Level FlightAware Transoceanic
05:10PM 32.1506 -124.5347 75° East 458 527 38,000  Level FlightAware Transoceanic
05:11PM 32.1839 -124.3899 75° East 458 527 38,000  Level FlightAware Transoceanic
05:12PM 32.2170 -124.2450 75° East 458 527 38,000  Level FlightAware Transoceanic
05:13PM 32.2500 -124.1000 46° Northeast 458 527 38,000  Level FlightAware Transoceanic
05:13PM 32.2247 -124.0967 46° Northeast 461 531 38,000  Level Los Angeles Center
05:14PM 32.3455 -123.9848 46° Northeast 458 527 38,000  Level FlightAware Transoceanic
05:14PM 32.3253 -123.9564 50° Northeast 466 536 38,000  Level Los Angeles Center
05:15PM 32.4409 -123.8694 46° Northeast 458 527 38,000  Level FlightAware Transoceanic
05:15PM 32.4194 -123.8444 45° Northeast 467 537 38,000  Level Los Angeles Center
05:16PM 32.5362 -123.7537 46° Northeast 458 527 38,000  Level FlightAware Transoceanic
05:16PM 32.4742 -123.7089 64° Northeast 462 532 38,000  Level Los Angeles Center
05:17PM 32.6314 -123.6378 46° Northeast 458 527 38,000  Level FlightAware Transoceanic
05:17PM 32.5236 -123.5653 68° East 467 537 38,000  Level Los Angeles Center
05:18PM 32.7265 -123.5217 46° Northeast 458 527 38,000  Level FlightAware Transoceanic
05:18PM 32.5767 -123.4242 66° East 470 541 38,000  Level Los Angeles Center
05:19PM 32.6292 -123.2844 66° East 468 539 38,000  Level Los Angeles Center
05:20PM 32.6928 -123.1164 66° East 467 537 38,000  Level Los Angeles Center
05:21PM 32.7453 -122.9742 66° East 470 541 38,000  Level Los Angeles Center
05:23PM 32.7989 -122.8339 66° East 468 539 38,000  Level Los Angeles Center
05:24PM 32.8486 -122.6908 67° East 469 540 38,000  Level Los Angeles Center
05:25PM 32.9008 -122.5481 66° East 472 543 38,000 -300 Level Los Angeles Center
05:26PM 32.9531 -122.4075 66° East 469 540 37,400 -1,260 Descending Los Angeles Center
05:27PM 33.0169 -122.2353 66° East 474 545 35,400 -1,680 Descending Los Angeles Center
05:28PM 33.0767 -122.0992 62° Northeast 468 539 34,000 -1,200 Descending Los Angeles Center
05:29PM 33.1289 -121.9506 67° East 484 557 33,000 -180 Descending Los Angeles Center
05:34PM 33.4030 -121.1050 67° East 491 565 33,000  Level FlightAware
05:35PM 33.4400 -120.9990 67° East 491 565 33,000  Level FlightAware
05:36PM 33.4760 -120.8930 68° East 495 570 33,000  Level FlightAware
05:36PM 33.5090 -120.8000 67° East 496 571 33,000  Level FlightAware
05:37PM 33.5390 -120.7130 68° East 496 571 33,000  Level FlightAware
05:38PM 33.5700 -120.6270 67° East 496 571 33,000  Level FlightAware
05:38PM 33.6000 -120.5410 67° East 496 571 33,000  Level FlightAware
05:39PM 33.6390 -120.4330 67° East 496 571 33,000  Level FlightAware
05:40PM 33.6690 -120.3470 67° East 496 571 33,000  Level FlightAware
05:41PM 33.6990 -120.2610 67° East 496 571 33,000  Level FlightAware
05:41PM 33.7300 -120.1740 67° East 496 571 33,000  Level FlightAware
05:42PM 33.7600 -120.0880 67° East 496 571 33,000  Level FlightAware
05:43PM 33.7910 -120.0010 67° East 496 571 33,000 -9,360 Level FlightAware
05:43PM 33.8600 -119.7480 72° East 448 516 19,800 -10,260 Descending FlightAware
05:44PM 33.8920 -119.6510 68° East 431 496 18,500 -1,440 Descending FlightAware
05:45PM 33.9190 -119.5700 68° East 428 493 17,900 -1,620 Descending FlightAware
05:46PM 33.9580 -119.4500 69° East 419 482 16,100 -2,220 Descending FlightAware
05:46PM 33.9840 -119.3700 69° East 407 468 14,600 -2,340 Descending FlightAware
05:47PM 34.0130 -119.2710 71° East 393 452 12,800 -2,340 Descending FlightAware
05:48PM 34.0170 -119.1990 86° East 384 442 11,500 -1,200 Descending FlightAware
05:48PM 34.0140 -119.1210 93° East 382 440 11,300 -300 Descending FlightAware
05:49PM 34.0090 -119.0320 94° East 378 435 11,100 -180 Descending FlightAware
05:50PM 34.0040 -118.9260 93° East 379 436 11,100 -420 Level FlightAware
05:50PM 34.0000 -118.8310 93° East 378 435 10,500 -840 Descending FlightAware
05:51PM 33.9960 -118.7570 94° East 370 426 10,000 -420 Descending FlightAware
05:52PM 33.9920 -118.6750 93° East 337 388 10,000 -1,140 Level FlightAware
05:55PM 33.9860 -118.4000 91° East 260 299 6,100 -1,200 Descending FlightAware
06:00PM 33.9190 -118.4130 189° South 126 145 200 -1,080 Descending FlightAware